createdAt,value
2023-01-21T00:01:03.753Z,87.44
2023-01-21T00:03:30.748Z,87.80
2023-01-21T00:06:00.566Z,87.85
2023-01-21T00:08:27.433Z,87.93
2023-01-21T00:10:54.877Z,87.79
2023-01-21T00:13:22.034Z,88.00
2023-01-21T00:15:48.924Z,87.81
2023-01-21T00:18:15.840Z,87.95
2023-01-21T00:20:42.991Z,87.89
2023-01-21T00:23:11.030Z,87.99
2023-01-21T00:25:38.019Z,87.80
2023-01-21T00:28:05.093Z,87.63
2023-01-21T00:30:32.207Z,87.52
2023-01-21T00:32:59.219Z,87.46
2023-01-21T00:35:26.122Z,87.06
2023-01-21T00:37:53.080Z,86.92
2023-01-21T00:40:19.995Z,86.82
2023-01-21T00:42:46.979Z,86.91
2023-01-21T00:45:14.025Z,86.82
2023-01-21T00:47:40.943Z,86.70
2023-01-21T00:50:09.932Z,86.35
2023-01-21T00:52:36.924Z,86.03
2023-01-21T00:55:04.880Z,85.95
2023-01-21T00:57:31.855Z,86.01
2023-01-21T00:59:59.106Z,85.82
2023-01-21T01:02:26.051Z,85.76
2023-01-21T01:04:53.009Z,85.65
2023-01-21T01:07:19.885Z,85.41
2023-01-21T01:09:46.911Z,85.33
2023-01-21T01:12:13.858Z,85.25
2023-01-21T01:14:40.914Z,85.21
2023-01-21T01:17:07.833Z,85.16
2023-01-21T01:19:34.811Z,85.09
2023-01-21T01:22:01.761Z,85.12
2023-01-21T01:24:28.814Z,85.00
2023-01-21T01:26:55.764Z,85.02
2023-01-21T01:29:22.716Z,84.89
2023-01-21T01:31:49.692Z,84.58
2023-01-21T01:34:16.669Z,84.59
2023-01-21T01:36:43.703Z,84.41
2023-01-21T01:39:10.622Z,84.11
2023-01-21T01:41:37.573Z,84.07
2023-01-21T01:44:06.183Z,83.73
2023-01-21T01:46:35.350Z,83.64
2023-01-21T01:49:08.442Z,83.61
2023-01-21T01:51:54.876Z,83.70
2023-01-21T01:54:29.673Z,83.42
2023-01-21T01:56:58.058Z,83.29
2023-01-21T01:59:25.009Z,83.42
2023-01-21T02:01:52.001Z,83.29
2023-01-21T10:07:53.740Z,72.81
2023-01-21T10:10:25.189Z,72.45
2023-01-21T10:13:29.697Z,72.24
2023-01-21T10:15:56.618Z,72.53
2023-01-21T10:18:30.805Z,72.89
2023-01-21T10:21:03.754Z,73.37
2023-01-21T10:23:42.848Z,73.47
2023-01-21T10:26:12.366Z,73.24
2023-01-21T10:28:44.779Z,73.19
2023-01-21T10:31:15.620Z,73.34
2023-01-21T10:33:42.714Z,73.20
2023-01-21T10:36:27.988Z,73.04
2023-01-21T10:39:16.936Z,73.10
2023-01-21T10:41:43.802Z,73.90
2023-01-21T10:44:44.796Z,74.16
2023-01-21T10:47:20.539Z,74.46
2023-01-21T10:50:25.693Z,74.82
2023-01-21T10:52:57.543Z,74.78
2023-01-21T10:55:46.187Z,75.11
2023-01-21T10:58:47.627Z,75.00
2023-01-21T11:01:30.552Z,75.00
2023-01-21T11:03:59.668Z,75.42
2023-01-21T11:06:26.593Z,75.57
2023-01-21T11:08:58.790Z,75.21
2023-01-21T11:11:30.728Z,74.98
2023-01-21T11:13:57.783Z,75.09
2023-01-21T11:16:45.540Z,75.10
2023-01-21T11:19:32.889Z,75.11
2023-01-21T11:22:18.245Z,75.38
2023-01-21T11:24:49.228Z,75.36
2023-01-21T11:27:34.944Z,75.44
2023-01-21T11:30:02.507Z,75.62
2023-01-21T11:32:30.241Z,75.78
2023-01-21T11:35:15.973Z,75.85
2023-01-21T11:37:42.877Z,76.11
2023-01-21T11:40:24.937Z,75.77
2023-01-21T11:42:53.614Z,75.97
2023-01-21T11:45:33.603Z,75.62
2023-01-21T11:48:01.177Z,76.08
2023-01-21T11:50:34.840Z,76.17
2023-01-21T11:53:08.057Z,76.29
2023-01-21T11:55:42.789Z,76.64
2023-01-21T11:58:20.382Z,76.76
2023-01-21T12:00:48.293Z,76.59
2023-01-21T12:03:18.582Z,76.47
2023-01-21T12:05:48.522Z,76.31
2023-01-21T12:08:21.184Z,76.64
2023-01-21T12:10:48.121Z,76.35
2023-01-21T12:13:25.109Z,76.75
2023-01-21T12:16:04.448Z,76.65
2023-01-21T12:18:46.641Z,76.86
2023-01-21T12:21:28.230Z,76.64
2023-01-21T12:24:20.044Z,76.40
2023-01-21T12:27:26.015Z,76.47
2023-01-21T12:30:05.010Z,76.44
2023-01-21T12:32:39.446Z,76.37
2023-01-21T12:35:26.847Z,76.71
2023-01-21T12:38:06.880Z,76.14
2023-01-21T12:40:39.833Z,76.49
2023-01-21T12:43:49.510Z,76.40
2023-01-21T12:46:49.299Z,76.54
2023-01-21T12:49:42.250Z,76.70
2023-01-21T12:52:14.733Z,76.50
2023-01-21T12:55:08.591Z,76.56
2023-01-21T12:57:39.127Z,76.58
2023-01-21T13:00:23.777Z,76.84
2023-01-21T13:03:08.777Z,76.79
2023-01-21T13:05:37.630Z,76.78
2023-01-21T13:08:22.694Z,77.10
2023-01-21T13:10:53.382Z,77.30
2023-01-21T13:13:34.712Z,77.57
2023-01-21T13:16:05.606Z,77.31
2023-01-21T13:18:37.957Z,77.56
2023-01-21T13:21:12.876Z,77.56
2023-01-21T13:23:39.806Z,77.58
2023-01-21T13:26:14.331Z,77.79
2023-01-21T13:29:06.967Z,77.82
2023-01-21T13:32:08.894Z,77.77
2023-01-21T13:34:50.555Z,78.07
2023-01-21T13:37:49.897Z,78.57
2023-01-21T13:40:33.522Z,79.00
2023-01-21T13:43:29.308Z,79.11
2023-01-21T13:45:56.256Z,79.17
2023-01-21T13:48:41.956Z,79.66
2023-01-21T13:51:34.295Z,79.98
2023-01-21T13:54:16.787Z,79.77
2023-01-21T13:57:03.490Z,79.97
2023-01-21T13:59:34.378Z,79.92
2023-01-21T14:02:11.490Z,80.16
2023-01-21T14:05:07.815Z,80.48
2023-01-21T22:02:50.061Z,95.08
